Time;durP1;ratioP1;P1;durP2;ratioP2;P2;SDS_P1;SDS_P2;PMS_P1;PMS_P2;Temp;Humidity;BMP_temperature;BMP_pressure;BME280_temperature;BME280_humidity;BME280_pressure;Samples;Min_cycle;Max_cycle;Signal;HPM_P1;HPM_P2
2022/06/13 00:00:58;;;;;;;;;;;20.40;78.20;;;;;;6185367;23;19935;-96
2022/06/13 00:03:23;;;;;;;;;;;20.30;78.30;;;;;;6186187;23;19970;-96
2022/06/13 00:05:49;;;;;;;;;;;20.40;78.40;;;;;;6186369;23;19933;-96
2022/06/13 00:08:14;;;;;;;;;;;20.40;79.00;;;;;;6179365;23;20070;-96
2022/06/13 00:10:40;;;;;;;;;;;20.30;79.40;;;;;;6187774;23;19945;-96
2022/06/13 00:13:06;;;;;;;;;;;20.30;79.20;;;;;;6187956;23;20016;-96
2022/06/13 00:15:31;;;;;;;;;;;20.30;79.40;;;;;;6187266;23;19957;-96
2022/06/13 00:17:57;;;;;;;;;;;20.30;79.30;;;;;;6187354;23;20018;-96
2022/06/13 00:20:22;;;;;;;;;;;20.30;79.50;;;;;;6187343;23;19933;-96
2022/06/13 00:22:48;;;;;;;;;;;20.20;79.20;;;;;;6161054;23;19989;-96
2022/06/13 00:25:13;;;;;;;;;;;20.10;79.40;;;;;;6186798;23;19937;-96
2022/06/13 00:27:39;;;;;;;;;;;20.00;79.70;;;;;;6187382;23;19970;-96
2022/06/13 00:30:06;;;;;;;;;;;19.90;79.60;;;;;;6187294;23;20006;-96
2022/06/13 00:32:31;;;;;;;;;;;19.90;79.70;;;;;;6187200;23;19930;-96
2022/06/13 00:34:57;;;;;;;;;;;19.90;80.50;;;;;;6187549;23;19941;-96
2022/06/13 00:37:22;;;;;;;;;;;20.00;80.20;;;;;;6161793;23;19935;-96
2022/06/13 00:39:48;;;;;;;;;;;20.20;79.70;;;;;;6188224;23;19982;-96
2022/06/13 00:42:18;;;;;;;;;;;20.20;79.40;;;;;;6187500;23;20434;-96
2022/06/13 00:45:01;;;;;;;;;;;20.20;79.30;;;;;;6188355;23;19946;-96
2022/06/13 00:47:27;;;;;;;;;;;20.10;79.50;;;;;;6187913;23;19938;-96
2022/06/13 00:49:53;;;;;;;;;;;20.00;79.90;;;;;;6187628;23;20348;-96
2022/06/13 00:52:26;;;;;;;;;;;19.50;80.50;;;;;;6160750;23;19944;-96
2022/06/13 00:54:53;;;;;;;;;;;19.60;83.50;;;;;;6186456;23;19945;-96
2022/06/13 00:57:19;;;;;;;;;;;19.60;82.50;;;;;;6187005;23;20377;-96
2022/06/13 00:59:46;;;;;;;;;;;19.60;82.00;;;;;;6187133;23;19941;-96
2022/06/13 01:02:12;;;;;;;;;;;19.60;82.10;;;;;;6187000;23;19937;-96
2022/06/13 01:04:39;;;;;;;;;;;19.60;82.70;;;;;;6187287;23;19969;-96
2022/06/13 01:07:05;;;;;;;;;;;19.60;82.80;;;;;;6182697;23;19943;-96
2022/06/13 01:12:21;;;;;;;;;;;19.60;82.20;;;;;;6159209;23;20017;-96
2022/06/13 01:14:55;;;;;;;;;;;19.60;81.90;;;;;;6187284;23;19937;-96
2022/06/13 01:17:34;;;;;;;;;;;19.60;82.40;;;;;;6186468;23;20351;-96
2022/06/13 01:20:03;;;;;;;;;;;19.40;82.00;;;;;;6186422;23;19933;-96
2022/06/13 01:22:29;;;;;;;;;;;19.40;82.80;;;;;;6186685;23;19938;-96
2022/06/13 01:25:06;;;;;;;;;;;19.40;82.80;;;;;;6187236;23;19958;-96
2022/06/13 01:27:38;;;;;;;;;;;19.40;82.90;;;;;;6186860;23;20401;-96
2022/06/13 01:30:03;;;;;;;;;;;19.30;82.50;;;;;;6186334;23;19973;-96
2022/06/13 01:32:35;;;;;;;;;;;19.20;82.70;;;;;;6160397;23;19948;-96
2022/06/13 01:35:06;;;;;;;;;;;19.10;83.20;;;;;;6160948;23;19959;-96
2022/06/13 01:37:51;;;;;;;;;;;19.20;83.50;;;;;;6187637;23;19951;-96
2022/06/13 01:40:16;;;;;;;;;;;19.20;83.50;;;;;;6187521;23;20331;-96
2022/06/13 01:42:56;;;;;;;;;;;19.20;83.30;;;;;;6187407;23;19999;-96
2022/06/13 01:45:34;;;;;;;;;;;19.20;83.30;;;;;;6187195;23;19947;-96
2022/06/13 01:48:05;;;;;;;;;;;18.80;82.90;;;;;;6186875;23;19945;-96
2022/06/13 01:50:35;;;;;;;;;;;18.80;83.40;;;;;;6186761;23;19934;-96
2022/06/13 01:53:05;;;;;;;;;;;18.80;83.80;;;;;;6187203;23;19938;-96
2022/06/13 01:55:37;;;;;;;;;;;18.90;84.30;;;;;;6186344;23;19963;-96
2022/06/13 01:58:07;;;;;;;;;;;18.90;84.30;;;;;;6186430;23;19939;-96
2022/06/13 02:00:34;;;;;;;;;;;18.90;84.40;;;;;;6186446;23;19945;-96
2022/06/13 02:03:02;;;;;;;;;;;18.90;84.10;;;;;;6186468;23;19974;-96
2022/06/13 02:05:34;;;;;;;;;;;18.90;83.90;;;;;;6187173;23;19934;-96
2022/06/13 02:08:03;;;;;;;;;;;19.10;84.90;;;;;;6177918;23;19955;-96
2022/06/13 02:10:34;;;;;;;;;;;19.30;84.30;;;;;;6185956;23;19965;-96
2022/06/13 02:13:08;;;;;;;;;;;19.00;82.10;;;;;;6185534;23;19931;-96
2022/06/13 02:15:38;;;;;;;;;;;18.80;83.30;;;;;;6185836;23;19958;-96
2022/06/13 02:18:07;;;;;;;;;;;18.80;83.70;;;;;;6186610;23;19939;-96
2022/06/13 02:20:35;;;;;;;;;;;18.80;84.00;;;;;;6186764;23;19948;-96
2022/06/13 02:23:03;;;;;;;;;;;18.80;84.30;;;;;;6186429;23;19934;-96
2022/06/13 02:25:35;;;;;;;;;;;18.80;84.10;;;;;;6186062;23;19940;-96
2022/06/13 02:28:04;;;;;;;;;;;18.80;83.60;;;;;;6185832;23;19993;-96
2022/06/13 02:30:33;;;;;;;;;;;18.40;84.10;;;;;;6159487;23;19944;-96
2022/06/13 02:33:10;;;;;;;;;;;18.30;84.10;;;;;;6186231;23;20384;-96
2022/06/13 02:35:41;;;;;;;;;;;18.30;84.10;;;;;;6186002;23;19967;-96
2022/06/13 02:38:12;;;;;;;;;;;18.30;83.90;;;;;;6186391;23;19940;-96
2022/06/13 02:40:45;;;;;;;;;;;18.30;83.30;;;;;;6185884;23;19935;-96
2022/06/13 02:43:14;;;;;;;;;;;18.30;83.70;;;;;;6185259;23;19939;-96
2022/06/13 02:45:42;;;;;;;;;;;18.30;83.60;;;;;;6159227;23;19969;-96
2022/06/13 02:48:19;;;;;;;;;;;18.30;82.90;;;;;;6185782;23;19973;-96
2022/06/13 02:50:51;;;;;;;;;;;18.30;83.90;;;;;;6185753;23;19941;-96
2022/06/13 02:53:20;;;;;;;;;;;18.30;84.60;;;;;;6159253;23;19945;-96
2022/06/13 02:55:51;;;;;;;;;;;18.30;84.60;;;;;;6185761;23;20020;-96
2022/06/13 02:58:28;;;;;;;;;;;18.30;84.50;;;;;;6185561;23;19930;-96
2022/06/13 03:01:02;;;;;;;;;;;18.30;84.90;;;;;;6159008;23;19936;-96
2022/06/13 03:03:37;;;;;;;;;;;18.30;85.50;;;;;;6185314;23;19936;-96
2022/06/13 03:06:19;;;;;;;;;;;18.40;85.30;;;;;;6159351;23;19992;-96
2022/06/13 03:08:48;;;;;;;;;;;18.30;85.40;;;;;;6180080;23;19961;-96
2022/06/13 03:11:32;;;;;;;;;;;18.20;84.30;;;;;;6159418;23;19949;-96
2022/06/13 03:14:16;;;;;;;;;;;18.10;83.80;;;;;;6186060;23;19941;-96
2022/06/13 03:16:51;;;;;;;;;;;17.90;84.10;;;;;;6185524;23;19955;-96
2022/06/13 03:19:22;;;;;;;;;;;17.90;85.00;;;;;;6158358;23;19989;-96
2022/06/13 03:21:49;;;;;;;;;;;17.90;86.00;;;;;;6186043;23;19939;-96
2022/06/13 03:24:35;;;;;;;;;;;18.00;86.70;;;;;;6184793;23;19945;-96
2022/06/13 03:27:03;;;;;;;;;;;18.00;87.30;;;;;;6163870;23;19980;-96
2022/06/13 03:29:33;;;;;;;;;;;18.00;87.40;;;;;;6185532;23;19940;-95
2022/06/13 03:32:04;;;;;;;;;;;18.10;87.30;;;;;;6185846;23;19938;-96
2022/06/13 03:34:33;;;;;;;;;;;18.20;86.90;;;;;;6185269;23;19941;-96
2022/06/13 03:37:02;;;;;;;;;;;18.30;86.70;;;;;;6185304;23;20489;-96
2022/06/13 03:39:31;;;;;;;;;;;18.30;86.80;;;;;;6184802;23;19940;-96
2022/06/13 03:42:09;;;;;;;;;;;18.30;87.00;;;;;;6185371;23;20277;-96
2022/06/13 03:44:42;;;;;;;;;;;18.40;87.30;;;;;;6159508;23;19946;-96
2022/06/13 03:47:13;;;;;;;;;;;18.40;87.20;;;;;;6187765;23;19934;-96
2022/06/13 03:49:46;;;;;;;;;;;18.40;87.00;;;;;;6188097;23;20090;-96
2022/06/13 03:52:13;;;;;;;;;;;18.50;87.00;;;;;;6187729;23;19938;-96
2022/06/13 03:54:45;;;;;;;;;;;18.50;86.90;;;;;;6187178;23;19945;-96
2022/06/13 03:57:29;;;;;;;;;;;18.50;86.60;;;;;;6187518;23;19956;-96
2022/06/13 03:59:57;;;;;;;;;;;18.60;86.00;;;;;;6187388;23;19945;-96
2022/06/13 04:02:25;;;;;;;;;;;18.60;85.50;;;;;;6187744;23;19981;-96
2022/06/13 04:04:53;;;;;;;;;;;18.70;85.10;;;;;;6187340;23;20397;-96
2022/06/13 04:07:20;;;;;;;;;;;18.80;84.70;;;;;;6182741;23;19934;-96
2022/06/13 04:09:52;;;;;;;;;;;18.80;84.40;;;;;;6160658;23;20280;-96
2022/06/13 04:12:34;;;;;;;;;;;18.80;84.50;;;;;;6162917;23;19935;-96
2022/06/13 04:15:09;;;;;;;;;;;18.80;84.60;;;;;;6161220;23;20363;-96
2022/06/13 04:17:37;;;;;;;;;;;18.90;85.00;;;;;;6188207;23;20010;-96
2022/06/13 04:20:12;;;;;;;;;;;18.90;84.80;;;;;;6188776;23;19947;-96
2022/06/13 04:22:47;;;;;;;;;;;19.00;84.60;;;;;;6189509;23;20013;-96
2022/06/13 04:25:13;;;;;;;;;;;19.10;84.10;;;;;;6189473;23;19943;-96
2022/06/13 04:27:42;;;;;;;;;;;19.00;84.10;;;;;;6162899;23;20023;-96
2022/06/13 04:30:14;;;;;;;;;;;19.10;84.40;;;;;;6188836;23;19945;-96
2022/06/13 04:32:48;;;;;;;;;;;19.10;84.70;;;;;;6188852;23;19950;-96
2022/06/13 04:35:14;;;;;;;;;;;19.10;85.20;;;;;;6188721;23;20351;-96
2022/06/13 04:37:40;;;;;;;;;;;18.90;85.90;;;;;;6190013;23;19966;-96
2022/06/13 04:40:08;;;;;;;;;;;18.90;85.90;;;;;;6189959;23;19951;-96
2022/06/13 04:42:36;;;;;;;;;;;19.10;86.00;;;;;;6188721;23;19960;-96
2022/06/13 04:45:07;;;;;;;;;;;19.20;86.00;;;;;;6189576;23;19934;-96
2022/06/13 04:47:33;;;;;;;;;;;19.30;85.60;;;;;;6188619;23;20434;-96
2022/06/13 04:49:59;;;;;;;;;;;19.40;85.00;;;;;;6188016;23;19942;-96
2022/06/13 04:52:30;;;;;;;;;;;19.50;84.50;;;;;;6161355;23;19948;-96
2022/06/13 04:55:17;;;;;;;;;;;19.70;84.10;;;;;;6187757;23;20353;-96
2022/06/13 04:57:43;;;;;;;;;;;19.80;83.60;;;;;;6188657;23;20353;-96
2022/06/13 05:00:09;;;;;;;;;;;19.90;83.00;;;;;;6189202;23;19944;-96
2022/06/13 05:02:40;;;;;;;;;;;20.00;82.40;;;;;;6189524;23;19934;-96
2022/06/13 05:05:19;;;;;;;;;;;20.20;81.90;;;;;;6188483;23;19936;-96
2022/06/13 05:07:45;;;;;;;;;;;20.40;81.10;;;;;;6188824;23;19938;-96
2022/06/13 05:10:14;;;;;;;;;;;20.70;80.20;;;;;;6170314;23;19947;-96
2022/06/13 05:12:42;;;;;;;;;;;20.90;79.40;;;;;;6199502;23;19949;-96
2022/06/13 05:15:11;;;;;;;;;;;21.00;78.90;;;;;;6202811;23;20032;-96
2022/06/13 05:17:37;;;;;;;;;;;21.10;78.60;;;;;;6175966;23;19941;-96
2022/06/13 05:20:07;;;;;;;;;;;21.30;77.80;;;;;;6200145;23;19952;-96
2022/06/13 05:22:41;;;;;;;;;;;21.30;77.90;;;;;;6173035;23;19953;-96
2022/06/13 05:25:10;;;;;;;;;;;21.40;77.40;;;;;;6171349;23;19937;-96
2022/06/13 05:27:36;;;;;;;;;;;21.40;77.10;;;;;;6164034;23;19979;-96
2022/06/13 05:30:02;;;;;;;;;;;21.50;76.90;;;;;;6161070;23;19957;-96
2022/06/13 05:32:27;;;;;;;;;;;21.70;76.60;;;;;;6161167;23;19938;-96
2022/06/13 05:34:53;;;;;;;;;;;21.80;76.20;;;;;;6163507;23;19946;-96
2022/06/13 05:37:19;;;;;;;;;;;21.90;75.90;;;;;;6164083;23;19969;-96
2022/06/13 05:39:45;;;;;;;;;;;22.10;75.50;;;;;;6163767;23;19968;-96
2022/06/13 05:42:12;;;;;;;;;;;22.20;75.00;;;;;;6162706;23;19936;-96
2022/06/13 05:44:41;;;;;;;;;;;22.30;74.70;;;;;;6169181;23;19932;-97
2022/06/13 06:09:53;;;;;;;;;;;23.20;72.70;;;;;;6186449;23;20036;-96
2022/06/13 06:12:20;;;;;;;;;;;23.30;73.20;;;;;;6197037;23;19936;-96
2022/06/13 06:14:46;;;;;;;;;;;23.30;72.90;;;;;;6181482;23;19943;-96
2022/06/13 06:17:12;;;;;;;;;;;23.30;72.30;;;;;;6206956;23;19958;-96
2022/06/13 06:19:40;;;;;;;;;;;23.40;72.50;;;;;;6208854;23;19983;-96
2022/06/13 06:22:06;;;;;;;;;;;23.40;72.50;;;;;;6185037;23;19935;-96
2022/06/13 06:24:33;;;;;;;;;;;23.50;72.60;;;;;;6184322;23;19943;-96
2022/06/13 06:27:00;;;;;;;;;;;23.50;72.30;;;;;;6185527;23;19979;-96
2022/06/13 06:29:30;;;;;;;;;;;23.60;72.30;;;;;;6186195;23;19958;-96
2022/06/13 06:31:57;;;;;;;;;;;23.60;72.30;;;;;;6186723;23;19939;-96
2022/06/13 06:34:28;;;;;;;;;;;23.60;72.60;;;;;;6187179;23;19961;-97
2022/06/13 06:36:57;;;;;;;;;;;23.70;72.70;;;;;;6186064;23;19997;-97
2022/06/13 06:39:33;;;;;;;;;;;23.70;72.50;;;;;;6183710;23;19944;-96
2022/06/13 06:42:09;;;;;;;;;;;23.70;72.60;;;;;;6212354;23;19970;-97
2022/06/13 06:44:36;;;;;;;;;;;23.70;72.40;;;;;;6170779;23;19993;-96
2022/06/13 06:47:01;;;;;;;;;;;23.70;72.20;;;;;;6172829;23;20027;-96
2022/06/13 06:49:27;;;;;;;;;;;23.70;72.20;;;;;;6163553;23;19951;-96
2022/06/13 06:51:53;;;;;;;;;;;23.70;72.70;;;;;;6186566;23;19934;-96
2022/06/13 06:59:53;;;;;;;;;;;23.60;72.80;;;;;;6186142;23;20271;-96
2022/06/13 07:02:20;;;;;;;;;;;23.60;72.40;;;;;;6186158;23;19935;-96
2022/06/13 07:04:46;;;;;;;;;;;23.70;72.70;;;;;;6185903;23;19968;-96
2022/06/13 07:07:11;;;;;;;;;;;23.60;72.70;;;;;;6187013;23;19927;-95
2022/06/13 07:09:37;;;;;;;;;;;23.60;72.30;;;;;;6186660;23;19985;-95
2022/06/13 07:12:02;;;;;;;;;;;23.60;72.30;;;;;;6186904;23;19932;-96
2022/06/13 07:14:32;;;;;;;;;;;23.70;72.50;;;;;;6186733;23;19940;-95
2022/06/13 07:16:59;;;;;;;;;;;23.70;72.40;;;;;;6186249;23;20389;-96
2022/06/13 07:19:25;;;;;;;;;;;23.80;72.40;;;;;;6186491;23;19971;-95
2022/06/13 07:21:51;;;;;;;;;;;23.90;72.10;;;;;;6188410;23;19939;-95
2022/06/13 07:24:16;;;;;;;;;;;24.00;71.90;;;;;;6189046;23;19947;-96
2022/06/13 07:26:42;;;;;;;;;;;24.10;71.30;;;;;;6189881;23;19932;-96
2022/06/13 07:29:08;;;;;;;;;;;24.30;70.80;;;;;;6187665;23;20264;-96
2022/06/13 07:31:37;;;;;;;;;;;24.50;70.20;;;;;;6187602;23;19939;-96
2022/06/13 07:34:04;;;;;;;;;;;24.70;70.20;;;;;;6161863;23;19941;-96
2022/06/13 07:36:29;;;;;;;;;;;24.80;70.30;;;;;;6187989;23;20378;-96
2022/06/13 07:38:55;;;;;;;;;;;25.00;69.90;;;;;;6161258;23;19949;-96
2022/06/13 07:41:22;;;;;;;;;;;25.20;68.50;;;;;;6161845;23;19948;-96
2022/06/13 07:43:49;;;;;;;;;;;25.20;68.70;;;;;;6188180;23;19966;-96
2022/06/13 07:46:14;;;;;;;;;;;25.20;69.10;;;;;;6188050;23;19936;-96
2022/06/13 07:48:40;;;;;;;;;;;25.20;68.10;;;;;;6161514;23;20046;-96
2022/06/13 07:51:06;;;;;;;;;;;25.20;68.10;;;;;;6188117;23;20411;-96
2022/06/13 07:53:32;;;;;;;;;;;25.20;68.10;;;;;;6187941;23;20240;-96
2022/06/13 07:55:57;;;;;;;;;;;25.20;68.60;;;;;;6187175;23;19960;-96
2022/06/13 07:58:36;;;;;;;;;;;25.20;68.00;;;;;;6188158;23;19938;-96
2022/06/13 08:01:02;;;;;;;;;;;25.30;68.90;;;;;;6187876;23;19965;-96
2022/06/13 08:03:29;;;;;;;;;;;25.30;67.60;;;;;;6188041;23;20015;-96
2022/06/13 08:05:55;;;;;;;;;;;25.40;68.60;;;;;;6187885;23;19940;-96
2022/06/13 08:08:20;;;;;;;;;;;25.50;68.00;;;;;;6187797;23;19963;-95
2022/06/13 08:10:47;;;;;;;;;;;25.60;67.20;;;;;;6187992;23;19945;-95
2022/06/13 08:13:14;;;;;;;;;;;25.60;66.10;;;;;;6187789;23;19937;-96
2022/06/13 08:15:39;;;;;;;;;;;25.60;65.70;;;;;;6187941;23;19965;-96
2022/06/13 08:18:05;;;;;;;;;;;25.50;65.50;;;;;;6190385;23;20239;-96
2022/06/13 08:20:31;;;;;;;;;;;25.50;65.80;;;;;;6188249;23;19935;-96
2022/06/13 08:22:59;;;;;;;;;;;25.70;68.00;;;;;;6188006;23;19994;-96
2022/06/13 08:25:27;;;;;;;;;;;25.80;68.50;;;;;;6188016;23;19957;-96
2022/06/13 08:27:54;;;;;;;;;;;25.90;69.40;;;;;;6194220;23;19985;-96
2022/06/13 08:30:19;;;;;;;;;;;26.00;67.20;;;;;;6187822;23;20018;-96
2022/06/13 08:32:45;;;;;;;;;;;26.00;65.40;;;;;;6192528;23;20393;-96
2022/06/13 08:35:11;;;;;;;;;;;26.10;64.20;;;;;;6187760;23;19963;-96
2022/06/13 08:37:37;;;;;;;;;;;26.20;64.50;;;;;;6188034;23;19948;-96
2022/06/13 08:40:04;;;;;;;;;;;26.20;63.40;;;;;;6187571;23;19939;-96
2022/06/13 08:42:38;;;;;;;;;;;26.30;65.10;;;;;;6187063;23;19966;-96
2022/06/13 08:45:12;;;;;;;;;;;26.40;64.50;;;;;;6186989;23;20020;-96
2022/06/13 08:47:41;;;;;;;;;;;26.40;64.10;;;;;;6163081;23;20021;-96
2022/06/13 08:50:12;;;;;;;;;;;26.50;63.00;;;;;;6187909;23;20022;-96
2022/06/13 08:52:44;;;;;;;;;;;26.50;62.00;;;;;;6187783;23;19938;-96
2022/06/13 08:55:31;;;;;;;;;;;26.60;61.10;;;;;;6187644;23;19936;-96
2022/06/13 08:58:00;;;;;;;;;;;26.70;60.70;;;;;;6187261;23;19938;-96
2022/06/13 09:00:26;;;;;;;;;;;26.70;61.60;;;;;;6186932;23;19937;-96
2022/06/13 09:03:01;;;;;;;;;;;26.80;61.00;;;;;;6185868;23;19939;-96
2022/06/13 09:05:33;;;;;;;;;;;26.90;60.10;;;;;;6188171;23;19946;-96
2022/06/13 09:08:19;;;;;;;;;;;26.90;59.50;;;;;;6161010;23;19946;-96
2022/06/13 09:10:52;;;;;;;;;;;27.00;59.50;;;;;;6186321;23;19936;-96
2022/06/13 09:13:29;;;;;;;;;;;26.80;60.70;;;;;;6187435;23;20021;-96
2022/06/13 09:16:05;;;;;;;;;;;26.80;61.80;;;;;;6186955;23;19962;-96
2022/06/13 09:18:50;;;;;;;;;;;26.90;59.90;;;;;;6187573;23;19998;-96
2022/06/13 09:21:16;;;;;;;;;;;27.00;59.30;;;;;;6184293;23;19936;-96
2022/06/13 09:23:48;;;;;;;;;;;27.10;60.50;;;;;;6187261;23;19942;-96
2022/06/13 09:26:25;;;;;;;;;;;27.20;57.50;;;;;;6190147;23;19947;-96
2022/06/13 09:28:50;;;;;;;;;;;27.20;60.40;;;;;;6193452;23;19939;-96
2022/06/13 09:31:40;;;;;;;;;;;27.30;59.70;;;;;;6164058;23;19948;-95
2022/06/13 09:34:14;;;;;;;;;;;27.40;58.80;;;;;;6187400;23;19942;-96
2022/06/13 09:37:06;;;;;;;;;;;27.50;57.10;;;;;;6186857;23;19965;-96
2022/06/13 09:39:31;;;;;;;;;;;27.50;57.10;;;;;;6180591;23;20023;-96
2022/06/13 09:42:16;;;;;;;;;;;27.60;56.30;;;;;;6186647;23;19975;-96
2022/06/13 09:44:58;;;;;;;;;;;27.70;56.10;;;;;;6186519;23;20355;-96
2022/06/13 09:47:24;;;;;;;;;;;27.70;56.40;;;;;;6187411;23;19964;-96
2022/06/13 09:49:49;;;;;;;;;;;27.90;56.00;;;;;;6187472;23;20020;-96
2022/06/13 09:52:21;;;;;;;;;;;27.90;52.60;;;;;;6161641;23;20273;-96
2022/06/13 09:54:50;;;;;;;;;;;28.00;53.00;;;;;;6191459;23;19937;-96
2022/06/13 09:57:19;;;;;;;;;;;28.10;54.10;;;;;;6193564;23;20007;-96
2022/06/13 10:00:00;;;;;;;;;;;28.20;52.80;;;;;;6191056;23;20354;-96
2022/06/13 10:02:29;;;;;;;;;;;28.30;53.70;;;;;;6193579;23;19984;-96
2022/06/13 10:05:02;;;;;;;;;;;28.30;52.90;;;;;;6188431;23;19938;-96
2022/06/13 10:07:34;;;;;;;;;;;28.40;52.10;;;;;;6161579;23;19939;-96
2022/06/13 10:09:59;;;;;;;;;;;28.50;53.50;;;;;;6187721;23;20007;-96
2022/06/13 10:12:26;;;;;;;;;;;28.50;52.70;;;;;;6161585;23;20390;-96
2022/06/13 10:15:06;;;;;;;;;;;28.50;51.50;;;;;;6189042;23;19932;-96
2022/06/13 10:17:49;;;;;;;;;;;28.50;51.40;;;;;;6188481;23;19965;-96
2022/06/13 10:20:40;;;;;;;;;;;28.60;52.40;;;;;;6190830;23;19937;-96
2022/06/13 10:23:24;;;;;;;;;;;28.70;48.10;;;;;;6194216;23;20029;-96
2022/06/13 10:26:09;;;;;;;;;;;28.90;51.30;;;;;;6165618;23;19998;-96
2022/06/13 10:28:34;;;;;;;;;;;29.00;50.30;;;;;;6192744;23;19939;-96
2022/06/13 10:31:04;;;;;;;;;;;29.10;53.00;;;;;;6193097;23;19974;-96
2022/06/13 10:33:52;;;;;;;;;;;29.30;53.90;;;;;;6192303;23;19950;-96
2022/06/13 10:36:25;;;;;;;;;;;29.40;48.10;;;;;;6191120;23;19956;-96
2022/06/13 10:38:55;;;;;;;;;;;29.40;46.70;;;;;;6165721;23;19960;-96
2022/06/13 10:41:22;;;;;;;;;;;29.50;48.40;;;;;;6191795;23;19940;-96
2022/06/13 10:43:47;;;;;;;;;;;29.50;47.30;;;;;;6191826;23;19939;-96
2022/06/13 10:46:16;;;;;;;;;;;29.60;50.10;;;;;;6193151;23;20268;-96
2022/06/13 10:48:53;;;;;;;;;;;29.70;48.80;;;;;;6193247;23;19996;-96
2022/06/13 10:51:19;;;;;;;;;;;29.90;48.90;;;;;;6192549;23;19961;-96
2022/06/13 10:53:45;;;;;;;;;;;29.90;46.10;;;;;;6192864;23;20367;-96
2022/06/13 10:56:33;;;;;;;;;;;30.10;46.90;;;;;;6193223;23;19957;-96
2022/06/13 10:58:59;;;;;;;;;;;30.30;48.70;;;;;;6191564;23;19964;-96
2022/06/13 11:01:29;;;;;;;;;;;30.40;45.70;;;;;;6188020;23;19934;-96
2022/06/13 11:04:03;;;;;;;;;;;30.20;43.50;;;;;;6188450;23;19932;-96
2022/06/13 11:06:32;;;;;;;;;;;30.20;45.50;;;;;;6188553;23;19948;-96
2022/06/13 11:09:02;;;;;;;;;;;30.20;48.00;;;;;;6162723;23;20029;-97
2022/06/13 11:11:29;;;;;;;;;;;30.40;47.70;;;;;;6189427;23;19977;-96
2022/06/13 11:13:55;;;;;;;;;;;30.50;43.40;;;;;;6188683;23;20356;-96
2022/06/13 11:22:38;;;;;;;;;;;31.10;45.40;;;;;;6194534;23;19943;-96
2022/06/13 11:25:24;;;;;;;;;;;31.50;46.00;;;;;;6164861;23;19962;-96
2022/06/13 11:28:00;;;;;;;;;;;31.70;43.20;;;;;;6187021;23;19952;-96
2022/06/13 11:30:26;;;;;;;;;;;31.20;43.10;;;;;;6195062;23;19956;-96
2022/06/13 11:32:59;;;;;;;;;;;30.70;43.70;;;;;;6188133;23;19944;-96
2022/06/13 11:35:39;;;;;;;;;;;30.70;44.20;;;;;;6189980;23;19932;-96
2022/06/13 11:38:22;;;;;;;;;;;30.90;45.70;;;;;;6194489;23;20037;-96
2022/06/13 11:40:54;;;;;;;;;;;31.20;44.40;;;;;;6166033;23;20343;-96
2022/06/13 11:43:23;;;;;;;;;;;31.20;45.60;;;;;;6186038;23;19988;-96
2022/06/13 11:45:56;;;;;;;;;;;31.30;43.60;;;;;;6185892;23;19941;-96
2022/06/13 11:48:22;;;;;;;;;;;31.40;43.40;;;;;;6159524;23;20003;-96
2022/06/13 11:50:52;;;;;;;;;;;31.50;44.00;;;;;;6132569;23;19943;-96
2022/06/13 11:53:37;;;;;;;;;;;31.20;43.80;;;;;;6158607;23;19938;-96
2022/06/13 11:56:05;;;;;;;;;;;30.90;45.40;;;;;;6186021;23;19951;-96
2022/06/13 11:58:32;;;;;;;;;;;30.90;45.10;;;;;;6187580;23;20324;-96
2022/06/13 12:01:10;;;;;;;;;;;31.00;44.80;;;;;;6189811;23;19938;-96
2022/06/13 12:03:36;;;;;;;;;;;31.20;45.50;;;;;;6161951;23;19951;-96
2022/06/13 12:06:08;;;;;;;;;;;31.00;45.70;;;;;;6187955;23;20055;-96
2022/06/13 12:08:33;;;;;;;;;;;30.90;45.70;;;;;;6189822;23;19936;-96
2022/06/13 12:11:01;;;;;;;;;;;30.80;46.60;;;;;;6189992;23;20420;-96
2022/06/13 12:13:28;;;;;;;;;;;30.80;44.40;;;;;;6189117;23;20009;-96
2022/06/13 12:15:56;;;;;;;;;;;30.90;44.20;;;;;;6188742;23;19959;-96
2022/06/13 12:18:22;;;;;;;;;;;31.10;43.70;;;;;;6190758;23;19945;-96
2022/06/13 12:21:00;;;;;;;;;;;31.10;43.70;;;;;;6190604;23;19940;-96
2022/06/13 12:23:58;;;;;;;;;;;31.10;46.30;;;;;;6187589;23;19966;-96
2022/06/13 12:26:24;;;;;;;;;;;31.00;45.80;;;;;;6123671;23;19958;-96
2022/06/13 12:29:04;;;;;;;;;;;31.20;45.60;;;;;;6189686;23;19948;-96
2022/06/13 12:31:52;;;;;;;;;;;31.50;45.50;;;;;;6190975;23;19943;-96
2022/06/13 12:34:33;;;;;;;;;;;31.70;44.90;;;;;;6190512;23;19939;-96
2022/06/13 12:37:01;;;;;;;;;;;31.60;46.00;;;;;;6189387;23;19961;-96
2022/06/13 12:39:36;;;;;;;;;;;31.50;46.50;;;;;;6190901;23;20031;-96
2022/06/13 12:42:02;;;;;;;;;;;31.50;45.40;;;;;;6190375;23;20367;-96
2022/06/13 12:44:27;;;;;;;;;;;31.60;47.70;;;;;;6187577;23;19939;-96
2022/06/13 12:46:56;;;;;;;;;;;31.60;45.00;;;;;;6187534;23;20020;-96
2022/06/13 12:49:21;;;;;;;;;;;31.20;44.10;;;;;;6164209;23;20267;-96
2022/06/13 12:52:19;;;;;;;;;;;31.30;45.70;;;;;;6190166;23;19938;-96
2022/06/13 12:55:03;;;;;;;;;;;31.30;44.20;;;;;;6126411;23;20002;-96
2022/06/13 12:57:29;;;;;;;;;;;31.30;43.50;;;;;;6191603;23;20256;-96
2022/06/13 13:00:01;;;;;;;;;;;31.40;42.90;;;;;;6190125;23;20016;-96
2022/06/13 13:02:32;;;;;;;;;;;31.50;46.40;;;;;;6191027;23;19937;-96
2022/06/13 13:05:01;;;;;;;;;;;31.90;44.70;;;;;;6193454;23;19937;-96
2022/06/13 13:07:43;;;;;;;;;;;32.20;43.40;;;;;;6162486;23;20023;-96
2022/06/13 13:10:11;;;;;;;;;;;32.50;40.90;;;;;;6165548;23;19943;-96
2022/06/13 13:12:52;;;;;;;;;;;33.30;40.00;;;;;;6197523;23;19936;-96
2022/06/13 13:15:24;;;;;;;;;;;34.00;38.80;;;;;;6198876;23;19948;-96
2022/06/13 13:17:55;;;;;;;;;;;34.50;39.30;;;;;;6167147;23;19953;-96
2022/06/13 13:20:22;;;;;;;;;;;35.30;37.50;;;;;;6203668;23;19984;-96
2022/06/13 13:22:56;;;;;;;;;;;36.00;36.80;;;;;;6199215;23;20353;-96
2022/06/13 13:25:25;;;;;;;;;;;37.00;35.00;;;;;;6196728;23;19948;-96
2022/06/13 13:28:02;;;;;;;;;;;37.50;33.40;;;;;;6196525;23;19937;-96
2022/06/13 13:30:31;;;;;;;;;;;37.60;31.90;;;;;;6198133;23;19932;-96
2022/06/13 13:32:56;;;;;;;;;;;37.20;32.90;;;;;;6166855;23;19940;-96
2022/06/13 13:35:41;;;;;;;;;;;36.60;33.20;;;;;;6189480;23;19938;-96
2022/06/13 13:38:13;;;;;;;;;;;36.80;34.00;;;;;;6187865;23;19941;-96
2022/06/13 13:40:52;;;;;;;;;;;36.50;32.70;;;;;;6186887;23;19974;-96
2022/06/13 13:43:31;;;;;;;;;;;37.10;33.30;;;;;;6187792;23;19939;-96
2022/06/13 13:46:05;;;;;;;;;;;37.50;32.50;;;;;;6187959;23;19942;-96
2022/06/13 13:48:39;;;;;;;;;;;37.20;31.40;;;;;;6188867;23;20014;-96
2022/06/13 13:51:24;;;;;;;;;;;37.30;31.80;;;;;;6188494;23;19944;-96
2022/06/13 13:54:16;;;;;;;;;;;36.70;31.70;;;;;;6169698;23;19993;-96
2022/06/13 13:56:54;;;;;;;;;;;35.90;32.40;;;;;;6186218;23;19960;-96
2022/06/13 13:59:25;;;;;;;;;;;35.70;33.80;;;;;;6190863;23;20354;-96
2022/06/13 14:01:58;;;;;;;;;;;35.70;34.20;;;;;;6187909;23;20020;-96
2022/06/13 14:04:28;;;;;;;;;;;35.60;34.30;;;;;;6187598;23;19965;-96
2022/06/13 14:07:12;;;;;;;;;;;35.20;34.70;;;;;;6186302;23;19937;-96
2022/06/13 14:09:38;;;;;;;;;;;34.20;35.50;;;;;;6187212;23;20263;-96
2022/06/13 14:12:11;;;;;;;;;;;33.70;35.90;;;;;;6193014;23;19939;-96
2022/06/13 14:14:38;;;;;;;;;;;34.00;37.10;;;;;;6195273;23;20028;-96
2022/06/13 14:17:05;;;;;;;;;;;33.60;37.20;;;;;;6189491;23;19958;-96
2022/06/13 14:19:33;;;;;;;;;;;33.60;37.60;;;;;;6191982;23;19936;-96
2022/06/13 14:22:14;;;;;;;;;;;33.50;37.50;;;;;;6161414;23;20028;-96
2022/06/13 14:25:12;;;;;;;;;;;33.60;40.20;;;;;;6185971;23;19946;-96
2022/06/13 14:27:50;;;;;;;;;;;33.20;43.10;;;;;;6120861;23;19989;-96
2022/06/13 14:33:05;;;;;;;;;;;33.00;41.00;;;;;;6186342;23;19948;-96
2022/06/13 14:35:49;;;;;;;;;;;32.90;42.90;;;;;;6186514;23;19947;-96
2022/06/13 14:38:16;;;;;;;;;;;32.70;41.10;;;;;;6186393;23;19942;-96
2022/06/13 14:40:44;;;;;;;;;;;32.80;42.90;;;;;;6186909;23;19937;-96
2022/06/13 14:43:13;;;;;;;;;;;32.90;42.20;;;;;;6186421;23;19942;-96
2022/06/13 14:45:38;;;;;;;;;;;32.60;41.80;;;;;;6160216;23;19994;-96
2022/06/13 14:48:16;;;;;;;;;;;32.50;43.10;;;;;;6186688;23;19985;-96
2022/06/13 14:50:42;;;;;;;;;;;32.50;41.80;;;;;;6187135;23;19931;-96
2022/06/13 14:53:26;;;;;;;;;;;32.70;43.30;;;;;;6186721;23;19934;-96
2022/06/13 14:56:07;;;;;;;;;;;32.80;42.90;;;;;;6159558;23;19976;-96
2022/06/13 14:58:42;;;;;;;;;;;33.00;42.90;;;;;;6186484;23;20014;-95
2022/06/13 15:01:24;;;;;;;;;;;33.10;43.30;;;;;;6187201;23;19935;-95
2022/06/13 15:04:07;;;;;;;;;;;33.20;42.80;;;;;;6186419;23;19940;-95
2022/06/13 15:06:34;;;;;;;;;;;33.10;42.70;;;;;;6186615;23;20013;-95
2022/06/13 15:09:08;;;;;;;;;;;32.80;42.70;;;;;;6186460;23;19983;-94
2022/06/13 15:11:40;;;;;;;;;;;32.60;43.40;;;;;;6186279;23;20285;-95
2022/06/13 15:14:10;;;;;;;;;;;32.20;44.40;;;;;;6186264;23;20429;-94
2022/06/13 15:16:35;;;;;;;;;;;31.70;45.60;;;;;;6186253;23;19954;-95
2022/06/13 15:19:03;;;;;;;;;;;31.50;46.00;;;;;;6186417;23;19960;-95